sensor_id;sensor_type;location;lat;lon;timestamp;pressure;altitude;pressure_sealevel;temperature;humidity
11936;BME280;6027;48.576;9.180;2023-08-24T00:02:12;97106.44;;;21.00;97.84
11936;BME280;6027;48.576;9.180;2023-08-24T00:05:09;97108.97;;;21.07;96.89
11936;BME280;6027;48.576;9.180;2023-08-24T00:07:41;97107.25;;;21.01;97.35
11936;BME280;6027;48.576;9.180;2023-08-24T00:10:28;97106.13;;;20.97;98.13
11936;BME280;6027;48.576;9.180;2023-08-24T00:13:15;97103.56;;;20.90;98.49
11936;BME280;6027;48.576;9.180;2023-08-24T00:16:05;97109.44;;;20.87;98.88
11936;BME280;6027;48.576;9.180;2023-08-24T00:18:58;97115.06;;;20.86;99.59
11936;BME280;6027;48.576;9.180;2023-08-24T00:21:28;97112.84;;;20.83;99.35
11936;BME280;6027;48.576;9.180;2023-08-24T00:24:09;97112.50;;;20.79;99.68
11936;BME280;6027;48.576;9.180;2023-08-24T00:26:43;97109.50;;;20.76;100.00
11936;BME280;6027;48.576;9.180;2023-08-24T00:29:33;97102.75;;;20.61;100.00
11936;BME280;6027;48.576;9.180;2023-08-24T00:32:35;97102.56;;;20.51;100.00
11936;BME280;6027;48.576;9.180;2023-08-24T00:35:25;97097.31;;;20.56;100.00
11936;BME280;6027;48.576;9.180;2023-08-24T00:38:09;97097.38;;;20.61;100.00
11936;BME280;6027;48.576;9.180;2023-08-24T00:40:44;97087.38;;;20.57;100.00
11936;BME280;6027;48.576;9.180;2023-08-24T00:43:32;97089.00;;;20.58;100.00
11936;BME280;6027;48.576;9.180;2023-08-24T00:46:17;97079.53;;;20.55;100.00
11936;BME280;6027;48.576;9.180;2023-08-24T00:49:02;97086.44;;;20.51;100.00
11936;BME280;6027;48.576;9.180;2023-08-24T00:51:46;97079.78;;;20.42;100.00
11936;BME280;6027;48.576;9.180;2023-08-24T00:54:32;97069.16;;;20.35;100.00
11936;BME280;6027;48.576;9.180;2023-08-24T00:57:06;97081.44;;;20.43;100.00
11936;BME280;6027;48.576;9.180;2023-08-24T00:59:50;97080.63;;;20.31;100.00
11936;BME280;6027;48.576;9.180;2023-08-24T01:02:34;97068.25;;;20.30;100.00
11936;BME280;6027;48.576;9.180;2023-08-24T01:05:28;97059.00;;;20.26;100.00
11936;BME280;6027;48.576;9.180;2023-08-24T01:08:13;97068.59;;;20.22;100.00
11936;BME280;6027;48.576;9.180;2023-08-24T01:17:27;97053.91;;;20.13;100.00
11936;BME280;6027;48.576;9.180;2023-08-24T01:20:07;97060.13;;;20.01;100.00
11936;BME280;6027;48.576;9.180;2023-08-24T01:23:33;97056.97;;;20.05;100.00
11936;BME280;6027;48.576;9.180;2023-08-24T01:26:19;97049.66;;;19.88;100.00
11936;BME280;6027;48.576;9.180;2023-08-24T01:29:07;97056.41;;;19.91;100.00
11936;BME280;6027;48.576;9.180;2023-08-24T01:31:54;97040.28;;;19.91;100.00
11936;BME280;6027;48.576;9.180;2023-08-24T01:34:41;97040.28;;;19.91;100.00
11936;BME280;6027;48.576;9.180;2023-08-24T01:37:26;97044.72;;;19.97;100.00
11936;BME280;6027;48.576;9.180;2023-08-24T01:40:23;97042.63;;;19.99;100.00
11936;BME280;6027;48.576;9.180;2023-08-24T01:43:12;97042.28;;;19.95;100.00
11936;BME280;6027;48.576;9.180;2023-08-24T01:45:58;97044.03;;;19.90;100.00
11936;BME280;6027;48.576;9.180;2023-08-24T01:48:43;97040.53;;;19.89;100.00
11936;BME280;6027;48.576;9.180;2023-08-24T01:51:29;97019.75;;;19.85;100.00
11936;BME280;6027;48.576;9.180;2023-08-24T01:54:14;97026.16;;;19.84;100.00
11936;BME280;6027;48.576;9.180;2023-08-24T01:56:59;97029.81;;;19.78;100.00
11936;BME280;6027;48.576;9.180;2023-08-24T01:59:43;97020.25;;;19.70;100.00
11936;BME280;6027;48.576;9.180;2023-08-24T02:02:47;97018.28;;;19.54;100.00
11936;BME280;6027;48.576;9.180;2023-08-24T02:05:43;97026.56;;;19.52;100.00
11936;BME280;6027;48.576;9.180;2023-08-24T02:08:24;97027.25;;;19.48;100.00
11936;BME280;6027;48.576;9.180;2023-08-24T02:11:12;97032.31;;;19.56;100.00
11936;BME280;6027;48.576;9.180;2023-08-24T02:13:56;97027.84;;;19.50;100.00
11936;BME280;6027;48.576;9.180;2023-08-24T02:17:01;97026.00;;;19.62;100.00
11936;BME280;6027;48.576;9.180;2023-08-24T02:19:55;97017.53;;;19.47;100.00
11936;BME280;6027;48.576;9.180;2023-08-24T02:22:40;97014.41;;;19.38;100.00
11936;BME280;6027;48.576;9.180;2023-08-24T02:25:24;97023.97;;;19.46;100.00
11936;BME280;6027;48.576;9.180;2023-08-24T02:28:20;97013.59;;;19.49;100.00
11936;BME280;6027;48.576;9.180;2023-08-24T02:31:04;97012.56;;;19.50;100.00
11936;BME280;6027;48.576;9.180;2023-08-24T02:34:07;97015.38;;;19.55;100.00
11936;BME280;6027;48.576;9.180;2023-08-24T02:36:53;97016.84;;;19.63;100.00
11936;BME280;6027;48.576;9.180;2023-08-24T02:39:29;97018.25;;;19.65;100.00
11936;BME280;6027;48.576;9.180;2023-08-24T02:43:15;97013.63;;;19.61;100.00
11936;BME280;6027;48.576;9.180;2023-08-24T02:46:09;97015.94;;;19.57;100.00
11936;BME280;6027;48.576;9.180;2023-08-24T02:48:54;97005.09;;;19.52;100.00
11936;BME280;6027;48.576;9.180;2023-08-24T02:51:38;97020.38;;;19.52;100.00
11936;BME280;6027;48.576;9.180;2023-08-24T02:54:22;97013.97;;;19.53;100.00
11936;BME280;6027;48.576;9.180;2023-08-24T02:57:07;97013.72;;;19.54;100.00
11936;BME280;6027;48.576;9.180;2023-08-24T02:59:51;97001.81;;;19.50;100.00
11936;BME280;6027;48.576;9.180;2023-08-24T03:02:36;97004.03;;;19.53;100.00
11936;BME280;6027;48.576;9.180;2023-08-24T03:05:18;96999.72;;;19.52;100.00
11936;BME280;6027;48.576;9.180;2023-08-24T03:08:02;96986.38;;;19.46;100.00
11936;BME280;6027;48.576;9.180;2023-08-24T03:10:58;97019.56;;;19.51;100.00
11936;BME280;6027;48.576;9.180;2023-08-24T03:13:31;97019.66;;;19.45;100.00
11936;BME280;6027;48.576;9.180;2023-08-24T03:16:05;97006.72;;;19.42;100.00
11936;BME280;6027;48.576;9.180;2023-08-24T03:18:40;97011.34;;;19.46;100.00
11936;BME280;6027;48.576;9.180;2023-08-24T03:21:08;97024.13;;;19.51;100.00
11936;BME280;6027;48.576;9.180;2023-08-24T03:23:39;97020.72;;;19.32;100.00
11936;BME280;6027;48.576;9.180;2023-08-24T03:26:44;97012.06;;;19.30;100.00
11936;BME280;6027;48.576;9.180;2023-08-24T03:29:31;97002.03;;;19.25;100.00
11936;BME280;6027;48.576;9.180;2023-08-24T03:32:18;96997.84;;;19.29;100.00
11936;BME280;6027;48.576;9.180;2023-08-24T03:34:59;96999.00;;;19.33;100.00
11936;BME280;6027;48.576;9.180;2023-08-24T03:37:46;96993.41;;;19.23;100.00
11936;BME280;6027;48.576;9.180;2023-08-24T03:40:33;96998.53;;;19.13;100.00
11936;BME280;6027;48.576;9.180;2023-08-24T03:43:17;96986.41;;;19.11;100.00
11936;BME280;6027;48.576;9.180;2023-08-24T03:46:03;96986.41;;;19.11;100.00
11936;BME280;6027;48.576;9.180;2023-08-24T03:48:50;96985.47;;;19.17;100.00
11936;BME280;6027;48.576;9.180;2023-08-24T03:51:47;96988.50;;;19.09;100.00
11936;BME280;6027;48.576;9.180;2023-08-24T03:54:32;96983.94;;;18.97;100.00
11936;BME280;6027;48.576;9.180;2023-08-24T03:57:30;96990.81;;;18.93;100.00
11936;BME280;6027;48.576;9.180;2023-08-24T04:00:18;96980.69;;;18.95;100.00
11936;BME280;6027;48.576;9.180;2023-08-24T04:03:02;96974.84;;;18.87;100.00
11936;BME280;6027;48.576;9.180;2023-08-24T04:05:47;96980.19;;;18.87;100.00
11936;BME280;6027;48.576;9.180;2023-08-24T04:08:31;96973.69;;;18.83;100.00
11936;BME280;6027;48.576;9.180;2023-08-24T04:11:16;96966.56;;;18.77;100.00
11936;BME280;6027;48.576;9.180;2023-08-24T04:14:00;96965.28;;;18.79;100.00
11936;BME280;6027;48.576;9.180;2023-08-24T04:16:46;96966.56;;;18.65;100.00
11936;BME280;6027;48.576;9.180;2023-08-24T04:19:32;96963.06;;;18.76;100.00
11936;BME280;6027;48.576;9.180;2023-08-24T04:22:20;96958.06;;;18.80;100.00
11936;BME280;6027;48.576;9.180;2023-08-24T04:24:58;96951.88;;;18.79;100.00
11936;BME280;6027;48.576;9.180;2023-08-24T04:30:03;96960.97;;;18.90;100.00
11936;BME280;6027;48.576;9.180;2023-08-24T04:33:06;96966.31;;;18.90;100.00
11936;BME280;6027;48.576;9.180;2023-08-24T04:35:37;96962.00;;;18.89;100.00
11936;BME280;6027;48.576;9.180;2023-08-24T04:38:19;96958.88;;;18.80;100.00
11936;BME280;6027;48.576;9.180;2023-08-24T04:44:01;96939.97;;;18.75;100.00
11936;BME280;6027;48.576;9.180;2023-08-24T04:49:36;96935.41;;;18.76;100.00
11936;BME280;6027;48.576;9.180;2023-08-24T04:52:01;96934.13;;;18.78;100.00
11936;BME280;6027;48.576;9.180;2023-08-24T04:54:27;96936.13;;;18.83;100.00
11936;BME280;6027;48.576;9.180;2023-08-24T04:56:55;96929.81;;;18.89;100.00
11936;BME280;6027;48.576;9.180;2023-08-24T04:59:43;96933.06;;;18.91;100.00
11936;BME280;6027;48.576;9.180;2023-08-24T05:06:09;96917.69;;;18.75;100.00
11936;BME280;6027;48.576;9.180;2023-08-24T05:08:39;96914.31;;;18.79;100.00
11936;BME280;6027;48.576;9.180;2023-08-24T05:11:51;96913.84;;;18.82;100.00
11936;BME280;6027;48.576;9.180;2023-08-24T05:14:26;96911.16;;;18.94;100.00
11936;BME280;6027;48.576;9.180;2023-08-24T05:18:07;96915.34;;;18.90;100.00
11936;BME280;6027;48.576;9.180;2023-08-24T05:20:32;96919.56;;;18.97;100.00
11936;BME280;6027;48.576;9.180;2023-08-24T05:23:18;96886.41;;;18.69;100.00
11936;BME280;6027;48.576;9.180;2023-08-24T05:25:45;96919.44;;;18.92;100.00
11936;BME280;6027;48.576;9.180;2023-08-24T05:28:44;96918.28;;;19.00;100.00
11936;BME280;6027;48.576;9.180;2023-08-24T05:36:32;96907.63;;;19.05;100.00
11936;BME280;6027;48.576;9.180;2023-08-24T05:38:58;96919.06;;;19.12;100.00
11936;BME280;6027;48.576;9.180;2023-08-24T05:41:37;96916.28;;;19.07;100.00
11936;BME280;6027;48.576;9.180;2023-08-24T05:49:08;96908.91;;;19.14;100.00
11936;BME280;6027;48.576;9.180;2023-08-24T05:51:43;96907.59;;;19.28;100.00
11936;BME280;6027;48.576;9.180;2023-08-24T05:54:09;96902.81;;;19.30;100.00
11936;BME280;6027;48.576;9.180;2023-08-24T05:56:34;96902.34;;;19.33;100.00
11936;BME280;6027;48.576;9.180;2023-08-24T05:59:00;96903.75;;;19.36;100.00
11936;BME280;6027;48.576;9.180;2023-08-24T06:01:25;96896.94;;;19.45;100.00
11936;BME280;6027;48.576;9.180;2023-08-24T06:03:51;96896.84;;;19.52;100.00
11936;BME280;6027;48.576;9.180;2023-08-24T06:06:16;96899.31;;;19.53;100.00
11936;BME280;6027;48.576;9.180;2023-08-24T06:08:43;96900.81;;;19.61;100.00
11936;BME280;6027;48.576;9.180;2023-08-24T06:11:08;96899.19;;;19.60;100.00
11936;BME280;6027;48.576;9.180;2023-08-24T06:13:34;96892.00;;;19.65;100.00
11936;BME280;6027;48.576;9.180;2023-08-24T06:15:59;96895.75;;;19.64;100.00
11936;BME280;6027;48.576;9.180;2023-08-24T06:18:25;96899.34;;;19.70;100.00
11936;BME280;6027;48.576;9.180;2023-08-24T06:20:51;96904.25;;;19.73;100.00
11936;BME280;6027;48.576;9.180;2023-08-24T06:23:17;96895.75;;;19.64;100.00
11936;BME280;6027;48.576;9.180;2023-08-24T06:25:43;96894.63;;;19.60;100.00
11936;BME280;6027;48.576;9.180;2023-08-24T06:28:09;96899.34;;;19.70;100.00
11936;BME280;6027;48.576;9.180;2023-08-24T06:30:38;96901.81;;;19.72;100.00
11936;BME280;6027;48.576;9.180;2023-08-24T06:33:05;96901.19;;;19.81;100.00
11936;BME280;6027;48.576;9.180;2023-08-24T06:35:30;96891.75;;;19.79;100.00
11936;BME280;6027;48.576;9.180;2023-08-24T06:37:56;96896.13;;;19.85;100.00
11936;BME280;6027;48.576;9.180;2023-08-24T06:40:21;96892.59;;;19.96;100.00
11936;BME280;6027;48.576;9.180;2023-08-24T06:42:47;96903.25;;;19.91;100.00
11936;BME280;6027;48.576;9.180;2023-08-24T06:45:12;96893.91;;;19.93;100.00
11936;BME280;6027;48.576;9.180;2023-08-24T06:47:39;96901.25;;;19.98;100.00
11936;BME280;6027;48.576;9.180;2023-08-24T06:50:05;96903.69;;;19.99;100.00
11936;BME280;6027;48.576;9.180;2023-08-24T06:52:31;96909.63;;;20.01;100.00
11936;BME280;6027;48.576;9.180;2023-08-24T06:54:57;96906.22;;;20.06;100.00
11936;BME280;6027;48.576;9.180;2023-08-24T06:57:23;96919.41;;;20.08;100.00
11936;BME280;6027;48.576;9.180;2023-08-24T06:59:50;96916.16;;;20.06;100.00
11936;BME280;6027;48.576;9.180;2023-08-24T07:02:15;96923.34;;;20.17;100.00
11936;BME280;6027;48.576;9.180;2023-08-24T07:04:43;96928.09;;;20.26;100.00
11936;BME280;6027;48.576;9.180;2023-08-24T07:07:09;96936.38;;;20.37;100.00
11936;BME280;6027;48.576;9.180;2023-08-24T07:10:07;96944.50;;;20.42;100.00
11936;BME280;6027;48.576;9.180;2023-08-24T07:12:40;96945.03;;;20.55;100.00
11936;BME280;6027;48.576;9.180;2023-08-24T07:15:07;96955.63;;;20.62;100.00
11936;BME280;6027;48.576;9.180;2023-08-24T07:17:48;96955.78;;;20.72;100.00
11936;BME280;6027;48.576;9.180;2023-08-24T07:20:20;96955.63;;;20.79;100.00
11936;BME280;6027;48.576;9.180;2023-08-24T07:22:45;96950.06;;;20.85;100.00
11936;BME280;6027;48.576;9.180;2023-08-24T07:25:13;96940.78;;;20.93;100.00
11936;BME280;6027;48.576;9.180;2023-08-24T07:27:43;96932.47;;;20.94;100.00
11936;BME280;6027;48.576;9.180;2023-08-24T07:30:09;96933.34;;;21.00;100.00
11936;BME280;6027;48.576;9.180;2023-08-24T07:32:36;96933.75;;;21.09;100.00
11936;BME280;6027;48.576;9.180;2023-08-24T07:35:01;96934.81;;;21.08;100.00
11936;BME280;6027;48.576;9.180;2023-08-24T07:37:30;96920.03;;;21.10;100.00
11936;BME280;6027;48.576;9.180;2023-08-24T07:39:55;96926.03;;;21.17;100.00
11936;BME280;6027;48.576;9.180;2023-08-24T07:42:21;96925.59;;;21.20;100.00
11936;BME280;6027;48.576;9.180;2023-08-24T07:44:49;96921.47;;;21.18;100.00
11936;BME280;6027;48.576;9.180;2023-08-24T07:47:41;96926.22;;;21.27;100.00
11936;BME280;6027;48.576;9.180;2023-08-24T07:50:10;96931.03;;;21.25;100.00
11936;BME280;6027;48.576;9.180;2023-08-24T07:52:38;96926.59;;;21.36;100.00
11936;BME280;6027;48.576;9.180;2023-08-24T07:55:12;96926.44;;;21.43;100.00
11936;BME280;6027;48.576;9.180;2023-08-24T07:58:03;96931.25;;;21.41;100.00
11936;BME280;6027;48.576;9.180;2023-08-24T08:00:33;96923.00;;;21.47;100.00
11936;BME280;6027;48.576;9.180;2023-08-24T08:03:01;96929.28;;;21.53;100.00
11936;BME280;6027;48.576;9.180;2023-08-24T08:05:26;96929.38;;;21.63;100.00
11936;BME280;6027;48.576;9.180;2023-08-24T08:08:04;96938.03;;;21.65;100.00
11936;BME280;6027;48.576;9.180;2023-08-24T08:10:36;96942.19;;;21.73;100.00
11936;BME280;6027;48.576;9.180;2023-08-24T08:13:02;96932.22;;;21.73;100.00
11936;BME280;6027;48.576;9.180;2023-08-24T08:15:27;96921.03;;;21.86;100.00
11936;BME280;6027;48.576;9.180;2023-08-24T08:17:53;96930.25;;;21.90;100.00
11936;BME280;6027;48.576;9.180;2023-08-24T08:20:18;96934.19;;;21.83;100.00
11936;BME280;6027;48.576;9.180;2023-08-24T08:22:44;96941.84;;;21.91;100.00
11936;BME280;6027;48.576;9.180;2023-08-24T08:25:09;96946.69;;;21.89;100.00
11936;BME280;6027;48.576;9.180;2023-08-24T08:27:35;96936.72;;;21.89;100.00
11936;BME280;6027;48.576;9.180;2023-08-24T08:30:01;96947.84;;;21.98;100.00
11936;BME280;6027;48.576;9.180;2023-08-24T08:32:26;96937.72;;;22.05;100.00
11936;BME280;6027;48.576;9.180;2023-08-24T08:34:55;96938.03;;;22.09;100.00
11936;BME280;6027;48.576;9.180;2023-08-24T08:37:22;96934.34;;;22.20;100.00
11936;BME280;6027;48.576;9.180;2023-08-24T08:39:48;96937.88;;;22.20;100.00
11936;BME280;6027;48.576;9.180;2023-08-24T08:42:13;96937.72;;;22.32;100.00
11936;BME280;6027;48.576;9.180;2023-08-24T08:44:41;96939.38;;;22.38;100.00
11936;BME280;6027;48.576;9.180;2023-08-24T08:47:10;96936.28;;;22.51;100.00
11936;BME280;6027;48.576;9.180;2023-08-24T08:49:38;96931.78;;;22.62;100.00
11936;BME280;6027;48.576;9.180;2023-08-24T08:52:05;96933.22;;;22.74;100.00
11936;BME280;6027;48.576;9.180;2023-08-24T08:54:31;96924.47;;;22.89;100.00
11936;BME280;6027;48.576;9.180;2023-08-24T08:56:59;96920.22;;;22.98;100.00
11936;BME280;6027;48.576;9.180;2023-08-24T08:59:27;96919.97;;;23.00;100.00
11936;BME280;6027;48.576;9.180;2023-08-24T09:01:57;96919.50;;;23.13;100.00
11936;BME280;6027;48.576;9.180;2023-08-24T09:04:27;96915.75;;;23.19;100.00
11936;BME280;6027;48.576;9.180;2023-08-24T09:06:52;96914.72;;;23.30;100.00
11936;BME280;6027;48.576;9.180;2023-08-24T09:09:18;96909.91;;;23.37;100.00
11936;BME280;6027;48.576;9.180;2023-08-24T09:11:44;96912.94;;;23.51;100.00
11936;BME280;6027;48.576;9.180;2023-08-24T09:14:12;96903.56;;;23.59;100.00
11936;BME280;6027;48.576;9.180;2023-08-24T09:16:39;96902.53;;;23.75;100.00
11936;BME280;6027;48.576;9.180;2023-08-24T09:19:05;96897.72;;;23.92;100.00
11936;BME280;6027;48.576;9.180;2023-08-24T09:21:31;96894.22;;;23.97;100.00
11936;BME280;6027;48.576;9.180;2023-08-24T09:24:01;96897.75;;;24.02;99.61
11936;BME280;6027;48.576;9.180;2023-08-24T09:26:30;96882.34;;;24.18;97.60
11936;BME280;6027;48.576;9.180;2023-08-24T09:28:56;96875.06;;;24.19;95.72
11936;BME280;6027;48.576;9.180;2023-08-24T09:31:22;96869.13;;;24.32;94.39
11936;BME280;6027;48.576;9.180;2023-08-24T09:33:48;96861.28;;;24.35;94.74
11936;BME280;6027;48.576;9.180;2023-08-24T09:36:14;96857.50;;;24.57;94.15
11936;BME280;6027;48.576;9.180;2023-08-24T09:38:47;96847.47;;;24.67;93.25
11936;BME280;6027;48.576;9.180;2023-08-24T09:41:13;96843.69;;;24.73;92.64
11936;BME280;6027;48.576;9.180;2023-08-24T09:43:39;96847.16;;;24.89;90.51
11936;BME280;6027;48.576;9.180;2023-08-24T09:46:05;96843.63;;;24.94;91.35
11936;BME280;6027;48.576;9.180;2023-08-24T09:48:32;96842.59;;;25.00;91.40
11936;BME280;6027;48.576;9.180;2023-08-24T09:51:01;96845.78;;;25.12;90.74
11936;BME280;6027;48.576;9.180;2023-08-24T09:53:32;96830.59;;;25.16;89.47
11936;BME280;6027;48.576;9.180;2023-08-24T09:56:01;96827.31;;;25.24;88.05
11936;BME280;6027;48.576;9.180;2023-08-24T09:58:28;96818.63;;;25.27;90.28
11936;BME280;6027;48.576;9.180;2023-08-24T10:01:05;96804.19;;;25.42;88.34
11936;BME280;6027;48.576;9.180;2023-08-24T10:03:51;96803.88;;;25.54;88.44
11936;BME280;6027;48.576;9.180;2023-08-24T10:06:19;96798.69;;;25.62;88.19
11936;BME280;6027;48.576;9.180;2023-08-24T10:08:50;96791.88;;;25.75;86.15
11936;BME280;6027;48.576;9.180;2023-08-24T10:11:23;96790.44;;;25.83;85.67
11936;BME280;6027;48.576;9.180;2023-08-24T10:14:05;96785.81;;;25.88;83.65
11936;BME280;6027;48.576;9.180;2023-08-24T10:16:33;96781.31;;;26.07;83.65
11936;BME280;6027;48.576;9.180;2023-08-24T10:19:02;96777.75;;;26.12;82.79
11936;BME280;6027;48.576;9.180;2023-08-24T10:21:29;96775.78;;;26.17;83.25
11936;BME280;6027;48.576;9.180;2023-08-24T10:23:58;96770.59;;;26.21;82.28
11936;BME280;6027;48.576;9.180;2023-08-24T10:26:26;96764.63;;;26.29;82.25
11936;BME280;6027;48.576;9.180;2023-08-24T10:28:52;96757.81;;;26.32;82.17
11936;BME280;6027;48.576;9.180;2023-08-24T10:31:18;96754.97;;;26.42;81.69
11936;BME280;6027;48.576;9.180;2023-08-24T10:33:45;96757.63;;;26.52;81.13
11936;BME280;6027;48.576;9.180;2023-08-24T10:36:13;96756.94;;;26.65;79.89
11936;BME280;6027;48.576;9.180;2023-08-24T10:38:43;96747.41;;;26.68;79.22
11936;BME280;6027;48.576;9.180;2023-08-24T10:41:09;96745.66;;;26.77;79.35
11936;BME280;6027;48.576;9.180;2023-08-24T10:43:48;96735.72;;;26.91;78.28
11936;BME280;6027;48.576;9.180;2023-08-24T10:46:15;96738.16;;;26.93;78.55
11936;BME280;6027;48.576;9.180;2023-08-24T10:53:59;96730.25;;;26.96;79.73
11936;BME280;6027;48.576;9.180;2023-08-24T10:56:39;96725.53;;;27.26;76.50
11936;BME280;6027;48.576;9.180;2023-08-24T10:59:17;96730.97;;;27.26;78.98
11936;BME280;6027;48.576;9.180;2023-08-24T11:01:56;96718.72;;;27.28;77.28
11936;BME280;6027;48.576;9.180;2023-08-24T11:04:23;96720.69;;;27.41;75.38
11936;BME280;6027;48.576;9.180;2023-08-24T11:06:57;96724.22;;;27.42;75.84
11936;BME280;6027;48.576;9.180;2023-08-24T11:09:26;96708.13;;;27.45;76.62
11936;BME280;6027;48.576;9.180;2023-08-24T11:11:58;96707.31;;;27.45;78.28
11936;BME280;6027;48.576;9.180;2023-08-24T11:14:24;96705.25;;;27.56;76.66
11936;BME280;6027;48.576;9.180;2023-08-24T11:16:52;96703.53;;;27.65;76.67
11936;BME280;6027;48.576;9.180;2023-08-24T11:19:19;96698.00;;;27.70;76.93
11936;BME280;6027;48.576;9.180;2023-08-24T11:24:13;96696.66;;;27.86;74.92
11936;BME280;6027;48.576;9.180;2023-08-24T11:26:49;96697.19;;;27.88;75.51
11936;BME280;6027;48.576;9.180;2023-08-24T11:29:14;96685.25;;;27.84;77.01
11936;BME280;6027;48.576;9.180;2023-08-24T11:31:41;96680.06;;;28.01;73.29
11936;BME280;6027;48.576;9.180;2023-08-24T11:34:07;96674.56;;;28.06;73.93
11936;BME280;6027;48.576;9.180;2023-08-24T11:36:45;96675.53;;;28.10;72.19
11936;BME280;6027;48.576;9.180;2023-08-24T11:39:20;96672.34;;;28.08;72.25
11936;BME280;6027;48.576;9.180;2023-08-24T11:44:23;96671.56;;;28.22;72.87
11936;BME280;6027;48.576;9.180;2023-08-24T11:46:49;96670.69;;;28.26;74.31
11936;BME280;6027;48.576;9.180;2023-08-24T11:49:14;96673.81;;;28.33;74.33
11936;BME280;6027;48.576;9.180;2023-08-24T11:51:40;96664.47;;;28.67;72.35
11936;BME280;6027;48.576;9.180;2023-08-24T11:54:05;96657.38;;;28.79;72.38
11936;BME280;6027;48.576;9.180;2023-08-24T11:56:31;96657.69;;;29.05;74.62
11936;BME280;6027;48.576;9.180;2023-08-24T11:58:57;96653.63;;;29.16;69.60
11936;BME280;6027;48.576;9.180;2023-08-24T12:01:22;96646.00;;;29.41;70.47
11936;BME280;6027;48.576;9.180;2023-08-24T12:03:48;96646.06;;;29.49;67.79
11936;BME280;6027;48.576;9.180;2023-08-24T12:06:15;96646.56;;;29.51;64.57
11936;BME280;6027;48.576;9.180;2023-08-24T12:08:42;96639.28;;;29.47;69.66
11936;BME280;6027;48.576;9.180;2023-08-24T12:11:16;96635.84;;;29.55;65.89
11936;BME280;6027;48.576;9.180;2023-08-24T12:13:50;96640.41;;;29.68;63.19
11936;BME280;6027;48.576;9.180;2023-08-24T12:16:21;96637.03;;;29.63;64.47
11936;BME280;6027;48.576;9.180;2023-08-24T12:18:54;96644.84;;;29.55;65.20
11936;BME280;6027;48.576;9.180;2023-08-24T12:21:21;96636.09;;;29.67;62.99
11936;BME280;6027;48.576;9.180;2023-08-24T12:26:22;96621.00;;;29.92;65.66
11936;BME280;6027;48.576;9.180;2023-08-24T12:28:51;96617.91;;;30.07;64.42
11936;BME280;6027;48.576;9.180;2023-08-24T12:31:18;96600.75;;;30.15;60.62
11936;BME280;6027;48.576;9.180;2023-08-24T12:33:45;96594.81;;;30.22;60.63
11936;BME280;6027;48.576;9.180;2023-08-24T12:36:11;96590.75;;;30.50;62.86
11936;BME280;6027;48.576;9.180;2023-08-24T12:38:37;96586.81;;;30.65;61.73
11936;BME280;6027;48.576;9.180;2023-08-24T12:41:03;96582.19;;;30.91;56.42
11936;BME280;6027;48.576;9.180;2023-08-24T12:43:28;96587.03;;;31.03;54.27
11936;BME280;6027;48.576;9.180;2023-08-24T12:45:54;96577.38;;;31.06;56.79
11936;BME280;6027;48.576;9.180;2023-08-24T12:48:19;96568.41;;;31.14;56.56
11936;BME280;6027;48.576;9.180;2023-08-24T12:50:45;96567.28;;;31.23;54.15
11936;BME280;6027;48.576;9.180;2023-08-24T12:53:10;96566.78;;;31.21;57.23
11936;BME280;6027;48.576;9.180;2023-08-24T12:55:38;96551.50;;;31.29;53.78
11936;BME280;6027;48.576;9.180;2023-08-24T12:58:04;96551.97;;;31.40;54.14
11936;BME280;6027;48.576;9.180;2023-08-24T13:00:30;96547.31;;;31.49;53.13
11936;BME280;6027;48.576;9.180;2023-08-24T13:02:55;96549.06;;;31.53;52.19
11936;BME280;6027;48.576;9.180;2023-08-24T13:05:21;96555.81;;;31.65;52.54
11936;BME280;6027;48.576;9.180;2023-08-24T13:07:46;96551.28;;;31.77;53.01
11936;BME280;6027;48.576;9.180;2023-08-24T13:10:12;96550.94;;;31.87;52.82
11936;BME280;6027;48.576;9.180;2023-08-24T13:12:38;96547.84;;;31.98;51.59
11936;BME280;6027;48.576;9.180;2023-08-24T13:15:04;96542.34;;;31.98;51.87
11936;BME280;6027;48.576;9.180;2023-08-24T13:17:30;96536.78;;;31.85;50.42
11936;BME280;6027;48.576;9.180;2023-08-24T13:19:55;96529.69;;;31.76;51.08
11936;BME280;6027;48.576;9.180;2023-08-24T13:22:21;96526.94;;;31.84;53.16
11936;BME280;6027;48.576;9.180;2023-08-24T13:24:47;96527.28;;;31.83;53.30
11936;BME280;6027;48.576;9.180;2023-08-24T13:27:12;96522.72;;;31.96;51.08
11936;BME280;6027;48.576;9.180;2023-08-24T13:29:37;96515.97;;;31.93;47.19
11936;BME280;6027;48.576;9.180;2023-08-24T13:32:03;96520.97;;;31.91;45.99
11936;BME280;6027;48.576;9.180;2023-08-24T13:34:30;96509.72;;;31.84;47.61
11936;BME280;6027;48.576;9.180;2023-08-24T13:36:56;96514.97;;;31.98;49.29
11936;BME280;6027;48.576;9.180;2023-08-24T13:39:23;96508.84;;;32.01;48.32
11936;BME280;6027;48.576;9.180;2023-08-24T13:41:48;96498.41;;;31.94;47.23
11936;BME280;6027;48.576;9.180;2023-08-24T13:44:14;96487.59;;;31.98;48.51
11936;BME280;6027;48.576;9.180;2023-08-24T13:46:39;96485.78;;;32.10;46.86
11936;BME280;6027;48.576;9.180;2023-08-24T13:49:05;96475.88;;;32.26;46.94
11936;BME280;6027;48.576;9.180;2023-08-24T13:51:30;96470.00;;;32.37;48.18
11936;BME280;6027;48.576;9.180;2023-08-24T13:53:56;96473.66;;;32.49;47.59
11936;BME280;6027;48.576;9.180;2023-08-24T13:56:21;96466.34;;;32.53;45.79
11936;BME280;6027;48.576;9.180;2023-08-24T13:58:46;96473.75;;;32.53;47.06
11936;BME280;6027;48.576;9.180;2023-08-24T14:01:12;96472.56;;;32.42;45.19
11936;BME280;6027;48.576;9.180;2023-08-24T14:03:39;96479.50;;;32.39;45.01
11936;BME280;6027;48.576;9.180;2023-08-24T14:06:06;96480.41;;;32.22;49.45
11936;BME280;6027;48.576;9.180;2023-08-24T14:08:41;96477.81;;;32.17;46.67
11936;BME280;6027;48.576;9.180;2023-08-24T14:11:06;96479.66;;;32.05;47.04
11936;BME280;6027;48.576;9.180;2023-08-24T14:13:32;96478.25;;;31.99;46.61
11936;BME280;6027;48.576;9.180;2023-08-24T14:15:57;96479.03;;;31.99;46.39
11936;BME280;6027;48.576;9.180;2023-08-24T14:18:23;96476.16;;;31.96;45.72
11936;BME280;6027;48.576;9.180;2023-08-24T14:20:48;96457.44;;;32.06;47.46
11936;BME280;6027;48.576;9.180;2023-08-24T14:23:15;96462.03;;;32.14;49.26
11936;BME280;6027;48.576;9.180;2023-08-24T14:25:41;96456.22;;;32.24;47.78